Time;durP1;ratioP1;P1;durP2;ratioP2;P2;SDS_P1;SDS_P2;PMS_P1;PMS_P2;Temp;Humidity;BMP_temperature;BMP_pressure;BME280_temperature;BME280_humidity;BME280_pressure;Samples;Min_cycle;Max_cycle;Signal;HPM_P1;HPM_P2
2022/03/17 00:00:15;;;;;;;21.40;18.40;;;;;;;10.74;71.33;101799.44;5261080;28;20032;-75
2022/03/17 00:02:47;;;;;;;19.15;16.88;;;;;;;10.91;70.99;101827.50;5258279;28;21025;-75
2022/03/17 00:05:18;;;;;;;21.80;17.00;;;;;;;10.85;70.96;101823.41;5274075;28;20036;-75
2022/03/17 00:07:49;;;;;;;23.53;18.57;;;;;;;10.87;71.20;101825.97;5274421;28;20060;-75
2022/03/17 00:10:21;;;;;;;20.53;17.67;;;;;;;10.87;71.15;101823.34;5267395;28;20537;-75
2022/03/17 00:12:52;;;;;;;20.87;17.80;;;;;;;10.78;71.32;101814.13;5275926;28;20028;-75
2022/03/17 00:15:23;;;;;;;24.10;18.77;;;;;;;10.62;72.14;101806.97;5272446;28;20040;-75
2022/03/17 00:17:54;;;;;;;21.17;18.23;;;;;;;10.80;71.81;101820.16;5269100;28;20577;-75
2022/03/17 00:20:26;;;;;;;22.33;18.37;;;;;;;10.71;72.84;101821.41;5254992;28;20023;-75
2022/03/17 00:22:57;;;;;;;20.13;17.57;;;;;;;10.49;73.26;101797.94;5269334;28;20112;-77
2022/03/17 00:25:29;;;;;;;21.57;18.10;;;;;;;10.75;72.17;101822.13;5268989;28;20533;-76
2022/03/17 00:28:01;;;;;;;20.93;17.53;;;;;;;10.68;72.56;101807.59;5253635;28;20032;-76
2022/03/17 00:30:32;;;;;;;20.97;17.93;;;;;;;10.65;72.90;101808.56;5263737;28;20074;-76
2022/03/17 00:33:03;;;;;;;23.17;18.20;;;;;;;10.58;73.27;101815.88;5270305;28;20072;-75
2022/03/17 00:35:35;;;;;;;22.03;17.43;;;;;;;10.73;72.49;101818.72;5256038;28;20033;-75
2022/03/17 00:38:08;;;;;;;24.00;19.47;;;;;;;10.62;73.30;101811.34;5272852;28;20024;-76
2022/03/17 00:40:40;;;;;;;22.97;18.57;;;;;;;10.60;73.00;101808.78;5256747;28;20458;-75
2022/03/17 00:43:14;;;;;;;21.13;17.40;;;;;;;10.63;72.65;101813.88;5252301;28;20092;-75
2022/03/17 00:45:47;;;;;;;25.15;17.42;;;;;;;10.67;72.50;101809.38;5253161;28;20040;-75
2022/03/17 00:48:18;;;;;;;24.07;16.83;;;;;;;10.67;73.06;101824.22;5265121;28;20035;-76
2022/03/17 00:50:50;;;;;;;21.57;18.60;;;;;;;10.67;72.95;101825.09;5257024;28;20032;-75
2022/03/17 00:53:21;;;;;;;19.73;17.63;;;;;;;10.59;73.65;101827.19;5262610;28;20115;-75
2022/03/17 00:55:52;;;;;;;27.37;18.93;;;;;;;10.67;73.25;101829.47;5251289;28;20145;-75
2022/03/17 00:58:23;;;;;;;25.13;20.03;;;;;;;10.58;73.54;101821.09;5259638;28;20517;-75
2022/03/17 01:00:56;;;;;;;21.03;17.70;;;;;;;10.52;73.58;101816.16;5258454;28;20431;-75
2022/03/17 01:03:27;;;;;;;19.57;17.20;;;;;;;10.66;73.60;101833.88;5255720;28;20563;-76
2022/03/17 01:05:59;;;;;;;25.93;17.70;;;;;;;10.71;73.28;101833.66;5251634;28;20029;-76
2022/03/17 01:08:30;;;;;;;23.37;18.50;;;;;;;10.55;74.33;101826.47;5254720;28;20585;-76
2022/03/17 01:11:02;;;;;;;24.07;18.73;;;;;;;10.52;74.40;101829.25;5251899;28;20029;-76
2022/03/17 01:13:34;;;;;;;25.03;18.57;;;;;;;10.51;75.08;101836.25;5259248;28;20021;-76
2022/03/17 01:16:05;;;;;;;24.50;17.50;;;;;;;10.48;75.51;101833.75;5267698;28;20080;-76
2022/03/17 01:18:36;;;;;;;22.10;19.70;;;;;;;10.39;75.83;101827.13;5271176;28;20024;-76
2022/03/17 01:21:07;;;;;;;19.07;17.03;;;;;;;10.43;76.03;101819.97;5271533;28;20029;-76
2022/03/17 01:23:39;;;;;;;26.53;20.30;;;;;;;10.34;75.82;101802.91;5272245;28;20032;-76
2022/03/17 01:26:10;;;;;;;26.37;18.20;;;;;;;10.46;75.53;101808.50;5271156;28;20027;-76
2022/03/17 01:28:41;;;;;;;21.87;18.37;;;;;;;10.53;76.05;101817.84;5271061;28;20467;-75
2022/03/17 01:31:13;;;;;;;24.20;17.60;;;;;;;10.63;75.71;101823.50;5270221;28;20701;-75
2022/03/17 01:33:44;;;;;;;21.60;18.47;;;;;;;10.53;75.62;101812.59;5272383;28;20131;-75
2022/03/17 01:36:15;;;;;;;25.43;19.77;;;;;;;10.64;75.43;101815.59;5271751;28;20040;-75
2022/03/17 01:38:47;;;;;;;20.33;18.23;;;;;;;10.68;75.36;101816.31;5271669;28;20036;-75
2022/03/17 01:41:18;;;;;;;24.53;18.67;;;;;;;10.66;75.67;101818.16;5269786;28;20063;-75
2022/03/17 01:43:49;;;;;;;30.47;20.50;;;;;;;10.52;76.19;101816.97;5271348;28;20439;-75
2022/03/17 01:46:21;;;;;;;23.13;18.77;;;;;;;10.64;75.86;101823.47;5271609;28;20073;-75
2022/03/17 01:48:52;;;;;;;23.27;18.80;;;;;;;10.46;76.79;101825.09;5271940;28;20029;-75
2022/03/17 01:51:24;;;;;;;21.70;17.83;;;;;;;10.57;76.75;101829.88;5271459;28;20086;-75
2022/03/17 01:53:55;;;;;;;24.20;18.97;;;;;;;10.64;76.89;101818.22;5272207;28;20028;-75
2022/03/17 01:56:26;;;;;;;25.37;19.37;;;;;;;10.65;76.80;101822.53;5270124;28;20028;-75
2022/03/17 01:58:58;;;;;;;24.17;17.73;;;;;;;10.64;76.80;101818.22;5271747;28;20035;-76
2022/03/17 02:01:29;;;;;;;24.50;19.27;;;;;;;10.63;76.78;101813.88;5269836;28;20021;-76
2022/03/17 02:04:00;;;;;;;21.73;19.43;;;;;;;10.72;77.17;101822.25;5270897;28;20157;-76
2022/03/17 02:06:32;;;;;;;25.27;19.27;;;;;;;10.57;77.76;101821.16;5269907;22;20201;-76
2022/03/17 02:09:04;;;;;;;23.00;19.07;;;;;;;10.62;77.68;101811.34;5240540;28;20037;-76
2022/03/17 02:14:25;;;;;;;25.03;19.53;;;;;;;10.75;76.89;101824.75;5222481;28;20033;-76
2022/03/17 02:16:56;;;;;;;26.27;19.73;;;;;;;10.78;76.92;101827.22;5235528;28;20115;-76
2022/03/17 02:19:27;;;;;;;26.43;20.17;;;;;;;10.76;77.23;101829.94;5240018;28;20021;-77
2022/03/17 02:21:59;;;;;;;24.87;19.30;;;;;;;10.79;77.18;101828.09;5240025;28;20034;-77
2022/03/17 02:27:20;;;;;;;23.30;18.40;;;;;;;10.75;77.80;101833.44;5250711;28;20029;-76
2022/03/17 02:29:52;;;;;;;26.63;19.67;;;;;;;10.78;77.56;101840.34;5251360;28;20025;-76
2022/03/17 02:32:23;;;;;;;28.67;19.80;;;;;;;10.84;77.82;101847.91;5244589;28;20021;-76
2022/03/17 02:34:55;;;;;;;26.03;19.27;;;;;;;10.74;77.81;101836.13;5242250;28;20068;-76
2022/03/17 02:37:26;;;;;;;24.17;19.60;;;;;;;10.81;78.43;101841.94;5233241;28;20025;-76
2022/03/17 02:39:59;;;;;;;23.80;18.67;;;;;;;10.84;77.96;101850.53;5233311;28;20495;-77
2022/03/17 02:42:31;;;;;;;24.27;18.27;;;;;;;10.93;77.98;101864.13;5251767;28;20571;-76
2022/03/17 02:45:05;;;;;;;23.47;18.87;;;;;;;10.86;78.92;101851.31;5250644;28;20064;-76
2022/03/17 02:47:37;;;;;;;21.27;18.98;;;;;;;10.95;78.91;101870.16;5240842;28;20111;-76
2022/03/17 02:50:12;;;;;;;26.60;21.17;;;;;;;10.94;80.23;101868.47;5249373;28;20116;-76
2022/03/17 02:52:44;;;;;;;35.00;20.63;;;;;;;10.91;81.69;101872.06;5231603;28;20026;-76
2022/03/17 02:55:15;;;;;;;30.77;22.73;;;;;;;10.88;83.77;101869.59;5228880;28;20546;-76
2022/03/17 02:57:47;;;;;;;33.53;25.63;;;;;;;10.99;85.96;101882.22;5230544;28;20025;-76
2022/03/17 03:00:19;;;;;;;38.07;27.57;;;;;;;10.98;88.32;101893.59;5244980;28;20021;-76
2022/03/17 03:02:50;;;;;;;35.70;26.50;;;;;;;10.95;88.97;101893.75;5230251;28;20133;-76
2022/03/17 03:05:22;;;;;;;37.37;25.57;;;;;;;10.86;90.54;101890.63;5243445;28;20086;-76
2022/03/17 03:07:54;;;;;;;28.33;24.43;;;;;;;10.78;92.04;101895.34;5231132;28;20045;-76
2022/03/17 03:10:25;;;;;;;28.20;20.97;;;;;;;10.75;93.16;101905.97;5231662;28;20029;-76
2022/03/17 03:12:57;;;;;;;25.83;18.90;;;;;;;10.85;93.15;101923.00;5239115;28;20037;-76
2022/03/17 03:15:29;;;;;;;21.50;18.23;;;;;;;10.80;93.93;101930.22;5233021;28;20029;-77
2022/03/17 03:18:01;;;;;;;17.90;16.00;;;;;;;10.80;95.22;101945.06;5243845;28;20033;-76
2022/03/17 03:20:33;;;;;;;17.03;14.93;;;;;;;10.71;94.92;101941.09;5229524;28;20037;-76
2022/03/17 03:23:04;;;;;;;15.97;14.27;;;;;;;10.70;95.04;101945.47;5256483;28;20033;-76
2022/03/17 03:25:36;;;;;;;15.33;13.73;;;;;;;10.57;96.72;101953.00;5245909;28;20036;-75
2022/03/17 03:28:09;;;;;;;14.33;12.83;;;;;;;10.59;96.71;101948.56;5248570;28;20032;-75
2022/03/17 03:30:40;;;;;;;14.63;13.17;;;;;;;10.65;96.71;101969.25;5249307;28;20033;-77
2022/03/17 03:33:11;;;;;;;13.57;12.17;;;;;;;10.43;98.08;101965.78;5250235;28;20021;-76
2022/03/17 03:38:33;;;;;;;12.37;11.17;;;;;;;10.44;96.95;101980.59;5238844;28;20036;-77
2022/03/17 03:41:04;;;;;;;12.67;11.47;;;;;;;10.44;96.67;101996.31;5252370;28;20025;-76
2022/03/17 03:43:35;;;;;;;13.43;12.10;;;;;;;10.32;96.58;101988.03;5231451;28;20033;-76
2022/03/17 03:46:06;;;;;;;13.73;12.30;;;;;;;10.37;96.16;102001.78;5240439;28;20447;-77
2022/03/17 03:48:38;;;;;;;14.20;12.80;;;;;;;10.39;95.27;102020.06;5244208;28;20029;-77
2022/03/17 03:51:10;;;;;;;13.63;12.33;;;;;;;10.29;96.29;102020.44;5248418;28;20051;-77
2022/03/17 03:56:31;;;;;;;13.63;12.30;;;;;;;10.00;96.27;102042.50;5247232;28;20033;-77
2022/03/17 03:59:05;;;;;;;13.73;12.30;;;;;;;10.14;95.58;102052.47;5229501;28;20026;-75
2022/03/17 04:01:36;;;;;;;16.35;14.52;;;;;;;10.04;94.47;102047.56;5247310;28;20386;-74
2022/03/17 04:04:08;;;;;;;15.37;13.77;;;;;;;10.09;94.18;102059.63;5250273;28;20036;-74
2022/03/17 04:06:44;;;;;;;17.47;14.87;;;;;;;9.92;94.99;102069.81;5243597;28;20037;-74
2022/03/17 04:09:18;;;;;;;19.60;15.87;;;;;;;9.98;94.08;102076.59;5235276;28;20617;-74
2022/03/17 04:11:50;;;;;;;23.63;17.30;;;;;;;9.71;95.39;102081.06;5238823;28;20071;-74
2022/03/17 04:14:23;;;;;;;19.67;16.17;;;;;;;9.89;93.42;102093.50;5226546;28;20044;-74
2022/03/17 04:16:54;;;;;;;19.40;16.57;;;;;;;9.72;94.62;102101.94;5249727;28;20021;-74
2022/03/17 04:19:26;;;;;;;24.80;17.53;;;;;;;9.78;94.53;102108.72;5246068;28;20042;-74
2022/03/17 04:21:58;;;;;;;21.50;17.07;;;;;;;9.70;95.58;102123.84;5240421;28;20021;-75
2022/03/17 04:24:29;;;;;;;23.07;17.03;;;;;;;9.58;94.85;102119.91;5227949;28;20104;-75
2022/03/17 04:27:00;;;;;;;21.43;15.70;;;;;;;9.61;94.74;102138.97;5236770;28;20072;-75
2022/03/17 04:29:31;;;;;;;20.50;15.57;;;;;;;9.55;93.78;102133.91;5228929;28;20026;-75
2022/03/17 04:32:03;;;;;;;18.53;14.37;;;;;;;9.50;93.65;102154.16;5232593;28;20026;-74
2022/03/17 04:34:34;;;;;;;20.93;15.07;;;;;;;9.54;91.53;102166.22;5234058;28;20025;-74
2022/03/17 04:37:06;;;;;;;22.13;15.53;;;;;;;9.44;91.72;102158.69;5238989;28;20021;-74
2022/03/17 04:39:37;;;;;;;19.53;15.00;;;;;;;9.25;92.38;102179.34;5228058;28;20041;-74
2022/03/17 04:42:09;;;;;;;21.43;15.27;;;;;;;9.36;91.58;102181.63;5242528;28;20025;-75
2022/03/17 04:44:40;;;;;;;22.83;14.83;;;;;;;9.43;91.37;102188.38;5241997;28;20581;-74
2022/03/17 04:47:12;;;;;;;27.27;15.70;;;;;;;9.35;90.46;102187.78;5230095;28;20036;-74
2022/03/17 04:49:43;;;;;;;23.47;15.27;;;;;;;9.43;90.29;102201.44;5233659;28;20041;-74
2022/03/17 04:55:05;;;;;;;18.57;12.40;;;;;;;9.43;88.28;102218.88;5231213;28;20041;-74
2022/03/17 04:57:36;;;;;;;19.73;11.00;;;;;;;9.35;87.31;102227.00;5231742;28;20050;-77
2022/03/17 05:00:08;;;;;;;21.80;11.40;;;;;;;9.20;87.66;102223.94;5250335;28;20029;-77
2022/03/17 05:02:39;;;;;;;18.97;10.67;;;;;;;9.36;87.24;102244.38;5250019;28;20056;-76
2022/03/17 05:05:11;;;;;;;25.10;12.50;;;;;;;9.35;86.97;102242.69;5252955;28;20025;-77
2022/03/17 05:07:42;;;;;;;23.17;12.50;;;;;;;9.17;87.82;102257.19;5237196;28;20405;-77
2022/03/17 05:10:13;;;;;;;26.83;12.97;;;;;;;8.92;87.85;102261.41;5238385;28;20033;-77
2022/03/17 05:12:44;;;;;;;22.63;14.07;;;;;;;9.12;87.01;102280.00;5231955;28;20051;-77
2022/03/17 05:15:16;;;;;;;26.03;11.93;;;;;;;9.10;84.87;102282.66;5241586;28;20465;-77
2022/03/17 05:17:47;;;;;;;18.67;11.97;;;;;;;8.91;86.29;102300.63;5237840;28;20605;-77
2022/03/17 05:20:19;;;;;;;19.30;11.00;;;;;;;9.01;87.32;102306.44;5249518;28;20029;-77
2022/03/17 05:22:50;;;;;;;23.20;10.80;;;;;;;9.02;85.74;102318.63;5236503;28;20025;-77
2022/03/17 05:25:22;;;;;;;19.40;9.17;;;;;;;8.93;84.57;102320.59;5231339;28;20036;-77
2022/03/17 05:27:53;;;;;;;15.37;7.53;;;;;;;8.92;83.84;102323.28;5230344;28;20059;-77
2022/03/17 05:30:24;;;;;;;21.20;8.17;;;;;;;8.94;84.05;102314.47;5242117;28;20557;-77
2022/03/17 05:32:56;;;;;;;16.07;6.27;;;;;;;8.77;84.89;102325.41;5241209;28;20032;-77
2022/03/17 05:35:27;;;;;;;19.87;6.10;;;;;;;8.83;83.64;102334.84;5252732;28;20563;-78
2022/03/17 05:38:00;;;;;;;19.67;6.37;;;;;;;8.81;83.95;102336.63;5252229;28;20686;-78
2022/03/17 05:40:32;;;;;;;12.23;5.43;;;;;;;8.69;85.48;102349.13;5249575;28;20029;-77
2022/03/17 05:43:06;;;;;;;13.70;5.20;;;;;;;8.90;83.49;102354.63;5244178;28;20021;-75
2022/03/17 05:45:40;;;;;;;13.57;5.68;;;;;;;8.47;85.85;102341.84;5241384;28;20088;-75
2022/03/17 05:48:11;;;;;;;13.85;4.22;;;;;;;8.70;83.15;102382.19;5243540;28;20499;-75
2022/03/17 05:50:45;;;;;;;11.23;4.27;;;;;;;8.66;83.27;102385.78;5247872;28;20033;-75
2022/03/17 05:53:16;;;;;;;11.20;4.07;;;;;;;8.63;83.00;102375.41;5233027;28;20025;-75
2022/03/17 05:55:47;;;;;;;14.57;4.77;;;;;;;8.64;83.27;102394.56;5231146;28;20040;-75
2022/03/17 05:58:18;;;;;;;12.20;4.90;;;;;;;8.85;80.84;102390.50;5237727;28;20040;-75
2022/03/17 06:00:50;;;;;;;14.67;3.40;;;;;;;8.73;81.35;102396.06;5233787;28;20072;-75
2022/03/17 06:03:21;;;;;;;12.33;3.57;;;;;;;8.68;82.49;102407.50;5239269;28;20034;-77
2022/03/17 06:05:52;;;;;;;9.90;4.40;;;;;;;8.71;82.32;102406.53;5230352;28;20538;-75
2022/03/17 06:08:23;;;;;;;14.67;5.23;;;;;;;8.62;82.51;102415.50;5229753;28;20052;-76
2022/03/17 06:10:55;;;;;;;9.67;3.73;;;;;;;8.73;82.83;102423.03;5233769;28;20034;-76
2022/03/17 06:13:26;;;;;;;11.47;4.50;;;;;;;8.70;85.00;102437.06;5231840;28;20028;-76
2022/03/17 06:15:57;;;;;;;15.07;4.67;;;;;;;8.66;84.21;102432.78;5230230;28;20025;-74
2022/03/17 06:18:29;;;;;;;8.43;3.80;;;;;;;8.52;85.15;102455.78;5231105;28;20563;-73
2022/03/17 06:21:00;;;;;;;12.80;3.97;;;;;;;8.52;84.60;102453.16;5242504;28;20472;-76
2022/03/17 06:23:32;;;;;;;10.73;3.90;;;;;;;8.65;85.21;102467.66;5230276;28;20025;-75
2022/03/17 06:26:03;;;;;;;13.03;4.83;;;;;;;8.75;85.58;102468.28;5234696;28;20025;-75
2022/03/17 06:28:34;;;;;;;16.03;4.83;;;;;;;8.74;84.91;102473.53;5226693;28;20025;-75
2022/03/17 06:31:06;;;;;;;10.17;3.97;;;;;;;8.73;85.09;102484.91;5229163;28;20029;-75
2022/03/17 06:33:37;;;;;;;14.53;4.77;;;;;;;8.61;85.57;102480.81;5248736;28;20036;-75
2022/03/17 06:36:08;;;;;;;11.30;4.53;;;;;;;8.48;86.19;102489.78;5243126;28;20037;-75
2022/03/17 06:38:39;;;;;;;13.80;4.20;;;;;;;8.61;83.76;102492.13;5233676;28;20021;-75
2022/03/17 06:41:11;;;;;;;14.27;4.53;;;;;;;8.67;83.47;102499.81;5230265;28;20052;-74
2022/03/17 06:43:42;;;;;;;14.67;4.43;;;;;;;8.63;82.69;102506.00;5231908;28;20096;-74
2022/03/17 06:46:13;;;;;;;7.33;3.20;;;;;;;8.73;83.00;102519.69;5229829;28;20036;-74
2022/03/17 06:48:45;;;;;;;13.87;3.83;;;;;;;8.68;82.96;102521.56;5231917;28;20029;-74
2022/03/17 06:51:16;;;;;;;10.63;4.30;;;;;;;8.64;83.14;102531.22;5230594;28;20049;-74
2022/03/17 06:53:47;;;;;;;13.93;4.47;;;;;;;8.73;82.50;102544.97;5230198;28;20029;-74
2022/03/17 06:56:19;;;;;;;10.67;3.87;;;;;;;8.52;81.56;102540.19;5230898;28;20036;-75
2022/03/17 06:58:50;;;;;;;7.80;3.40;;;;;;;8.55;80.24;102545.34;5232177;28;20025;-75
2022/03/17 07:01:21;;;;;;;10.23;2.67;;;;;;;8.58;80.61;102555.75;5230646;28;20113;-74
2022/03/17 07:03:52;;;;;;;11.00;3.70;;;;;;;8.45;80.47;102556.88;5228684;28;20032;-74
2022/03/17 07:06:23;;;;;;;9.37;2.50;;;;;;;8.39;80.79;102565.75;5228184;28;20048;-74
2022/03/17 07:08:55;;;;;;;10.00;2.30;;;;;;;8.44;78.64;102569.09;5229998;28;20532;-75
2022/03/17 07:11:26;;;;;;;10.67;2.43;;;;;;;8.32;79.91;102549.34;5227896;28;20409;-74
2022/03/17 07:13:57;;;;;;;5.80;2.47;;;;;;;8.50;79.14;102573.31;5245479;28;20472;-76
2022/03/17 07:16:29;;;;;;;9.10;1.93;;;;;;;8.61;78.64;102580.06;5240577;28;20029;-75
2022/03/17 07:19:00;;;;;;;6.80;1.80;;;;;;;8.36;79.05;102586.66;5236248;28;20037;-75
2022/03/17 07:21:31;;;;;;;10.30;2.80;;;;;;;8.52;78.84;102596.78;5232060;28;20135;-75
2022/03/17 07:24:05;;;;;;;10.70;1.90;;;;;;;8.30;79.56;102597.25;5227777;28;20017;-75
2022/03/17 07:26:36;;;;;;;11.43;2.07;;;;;;;8.46;78.66;102597.78;5230968;28;20052;-75
2022/03/17 07:29:08;;;;;;;13.03;3.17;;;;;;;8.32;79.88;102598.09;5230018;28;20029;-75
2022/03/17 07:31:39;;;;;;;9.87;2.67;;;;;;;8.50;78.98;102614.25;5240519;28;20033;-75
2022/03/17 07:34:10;;;;;;;10.43;2.70;;;;;;;8.62;78.91;102626.19;5250361;28;20025;-75
2022/03/17 07:36:44;;;;;;;12.87;2.70;;;;;;;8.43;79.75;102627.41;5246628;28;20107;-75
2022/03/17 07:39:15;;;;;;;8.40;2.63;;;;;;;8.45;82.07;102633.47;5237161;28;20480;-75
2022/03/17 07:41:46;;;;;;;7.97;1.83;;;;;;;8.46;82.13;102650.88;5231453;28;20477;-75
2022/03/17 07:44:17;;;;;;;7.90;2.17;;;;;;;8.50;81.73;102648.19;5236295;28;20033;-75
2022/03/17 07:46:49;;;;;;;9.23;2.50;;;;;;;8.40;82.14;102651.00;5234600;28;20118;-74
2022/03/17 07:49:20;;;;;;;12.67;3.03;;;;;;;8.39;81.31;102658.88;5243530;28;20033;-75
2022/03/17 07:51:53;;;;;;;8.30;2.30;;;;;;;8.35;81.58;102647.63;5246686;28;20063;-77
2022/03/17 07:54:24;;;;;;;7.27;2.63;;;;;;;8.44;81.01;102659.63;5245754;28;20025;-73
2022/03/17 07:56:56;;;;;;;11.63;2.30;;;;;;;8.48;80.93;102664.75;5233113;28;20045;-73
2022/03/17 07:59:28;;;;;;;10.27;2.53;;;;;;;8.48;79.65;102656.91;5233176;28;20029;-75
2022/03/17 08:01:59;;;;;;;19.93;3.33;;;;;;;8.43;79.93;102669.19;5233544;28;20041;-73
2022/03/17 08:04:31;;;;;;;9.57;2.17;;;;;;;8.47;79.35;102683.91;5228860;28;20029;-75
2022/03/17 08:07:03;;;;;;;9.47;1.97;;;;;;;8.59;79.46;102693.28;5228639;28;20155;-72
2022/03/17 08:09:35;;;;;;;10.07;2.30;;;;;;;8.52;78.65;102675.97;5227542;28;20100;-75
2022/03/17 08:12:06;;;;;;;12.93;2.27;;;;;;;8.66;78.38;102688.78;5227396;28;20539;-72
2022/03/17 08:14:38;;;;;;;11.37;2.27;;;;;;;8.50;78.53;102703.03;5228982;28;20030;-74
2022/03/17 08:17:09;;;;;;;9.30;1.83;;;;;;;8.58;77.59;102698.53;5227003;28;20049;-74
2022/03/17 08:19:41;;;;;;;10.03;2.80;;;;;;;8.70;76.58;102710.47;5227554;28;20037;-74
2022/03/17 08:22:12;;;;;;;10.87;2.00;;;;;;;8.67;76.59;102713.16;5228222;28;20029;-74
2022/03/17 08:24:43;;;;;;;17.27;3.23;;;;;;;8.81;75.37;102715.47;5231218;28;20087;-80
2022/03/17 08:27:15;;;;;;;9.47;2.13;;;;;;;8.78;73.81;102734.66;5236320;28;20029;-74
2022/03/17 08:29:48;;;;;;;12.27;3.17;;;;;;;8.79;72.73;102719.84;5235364;28;20030;-73
2022/03/17 08:32:19;;;;;;;13.13;2.63;;;;;;;8.86;72.18;102742.34;5241991;28;20048;-73
2022/03/17 08:34:50;;;;;;;16.03;2.63;;;;;;;9.04;71.65;102742.84;5241534;28;20603;-72
2022/03/17 08:37:22;;;;;;;11.80;2.53;;;;;;;8.99;70.23;102752.53;5247849;28;20492;-73
2022/03/17 08:39:53;;;;;;;13.67;3.53;;;;;;;9.11;69.68;102757.47;5242477;28;20059;-72
2022/03/17 08:42:24;;;;;;;15.97;2.93;;;;;;;9.08;69.38;102747.06;5232594;28;20025;-72
2022/03/17 08:44:55;;;;;;;7.77;2.30;;;;;;;9.16;68.21;102776.50;5232982;28;20084;-72
2022/03/17 08:50:16;;;;;;;13.30;3.10;;;;;;;9.23;67.23;102786.84;5239341;28;20041;-75
2022/03/17 08:52:49;;;;;;;7.83;1.90;;;;;;;9.19;66.14;102791.28;5232273;28;20018;-74
2022/03/17 08:55:21;;;;;;;9.23;2.50;;;;;;;9.23;66.57;102789.47;5238970;28;20123;-75
2022/03/17 08:57:52;;;;;;;16.20;2.20;;;;;;;9.14;66.06;102783.56;5251534;28;20040;-74
2022/03/17 09:00:23;;;;;;;9.23;2.27;;;;;;;9.28;67.15;102787.59;5251841;28;20783;-75
2022/03/17 09:02:55;;;;;;;16.57;2.30;;;;;;;9.32;66.03;102771.78;5251859;28;20554;-75
2022/03/17 09:05:26;;;;;;;9.03;2.23;;;;;;;9.38;65.78;102796.94;5250043;28;20033;-74
2022/03/17 09:07:57;;;;;;;11.47;2.67;;;;;;;9.53;64.77;102813.19;5234635;28;20049;-74
2022/03/17 09:10:29;;;;;;;15.77;1.97;;;;;;;9.44;64.53;102807.25;5238662;28;20894;-75
2022/03/17 09:13:07;;;;;;;10.40;1.90;;;;;;;9.29;64.53;102812.84;5249836;28;20059;-74
2022/03/17 09:15:40;;;;;;;11.87;2.63;;;;;;;9.36;63.96;102813.56;5237596;28;20037;-75
2022/03/17 09:18:12;;;;;;;13.73;2.77;;;;;;;9.51;64.64;102820.22;5236779;28;20103;-71
2022/03/17 09:20:43;;;;;;;14.70;2.53;;;;;;;9.41;64.72;102817.78;5235699;28;20025;-75
2022/03/17 09:23:16;;;;;;;9.60;2.93;;;;;;;9.29;64.60;102828.53;5235628;28;20055;-74
2022/03/17 09:25:47;;;;;;;14.07;3.10;;;;;;;9.31;65.12;102831.97;5230087;28;20087;-74
2022/03/17 09:28:18;;;;;;;15.43;3.13;;;;;;;9.43;65.31;102839.56;5231529;28;20472;-75
2022/03/17 09:30:51;;;;;;;9.70;2.60;;;;;;;9.43;63.99;102836.06;5232117;28;20055;-74
2022/03/17 09:33:26;;;;;;;13.23;2.80;;;;;;;9.44;64.83;102837.81;5231429;28;20601;-74
2022/03/17 09:35:57;;;;;;;15.23;2.93;;;;;;;9.57;64.50;102843.59;5228856;28;20112;-74
2022/03/17 09:38:28;;;;;;;14.77;2.97;;;;;;;9.49;64.01;102830.72;5231994;28;20116;-74
2022/03/17 09:41:00;;;;;;;12.50;2.43;;;;;;;9.56;63.12;102852.34;5230451;28;20025;-74
2022/03/17 09:43:31;;;;;;;8.80;2.33;;;;;;;9.75;62.78;102857.16;5231882;28;20129;-74
2022/03/17 09:46:06;;;;;;;10.03;2.30;;;;;;;9.72;64.03;102870.31;5231576;28;20029;-74
2022/03/17 09:48:38;;;;;;;11.43;2.40;;;;;;;9.62;63.51;102859.19;5231296;28;20025;-74
2022/03/17 09:51:11;;;;;;;9.53;2.23;;;;;;;9.75;62.27;102854.53;5231632;28;20033;-73
2022/03/17 09:53:43;;;;;;;17.37;2.50;;;;;;;9.65;61.64;102870.44;5230646;28;20060;-74
2022/03/17 09:56:14;;;;;;;15.17;2.00;;;;;;;9.68;61.72;102867.78;5231021;28;20061;-74
2022/03/17 09:58:47;;;;;;;15.43;2.60;;;;;;;9.77;62.05;102878.91;5231135;28;20041;-74
2022/03/17 10:01:20;;;;;;;10.40;1.77;;;;;;;9.76;61.84;102885.03;5231237;28;20027;-74
2022/03/17 10:03:57;;;;;;;8.00;2.20;;;;;;;9.78;62.83;102891.09;5230467;28;20041;-74
2022/03/17 10:06:29;;;;;;;13.50;2.80;;;;;;;9.77;61.97;102907.69;5230383;28;20050;-74
2022/03/17 10:09:00;;;;;;;6.87;2.03;;;;;;;9.83;61.06;102914.56;5230600;28;20395;-73
2022/03/17 10:11:32;;;;;;;8.27;2.03;;;;;;;9.79;61.21;102911.97;5230607;28;20100;-74
2022/03/17 10:14:05;;;;;;;10.27;1.60;;;;;;;9.90;61.91;102913.47;5231009;28;20029;-74
2022/03/17 10:16:37;;;;;;;7.78;1.90;;;;;;;9.86;62.11;102917.94;5229274;28;20045;-74
2022/03/17 10:19:10;;;;;;;9.13;2.50;;;;;;;9.89;62.15;102922.25;5230781;28;20026;-74
2022/03/17 10:21:43;;;;;;;8.57;1.90;;;;;;;9.98;61.27;102922.03;5231353;28;20622;-74
2022/03/17 10:24:16;;;;;;;10.23;2.40;;;;;;;10.23;61.09;102931.91;5229682;28;20034;-74
2022/03/17 10:26:51;;;;;;;14.33;2.40;;;;;;;10.17;61.11;102943.38;5230816;28;20083;-74
2022/03/17 10:29:26;;;;;;;9.93;2.20;;;;;;;10.11;60.59;102930.44;5230407;28;20048;-74
2022/03/17 10:32:01;;;;;;;12.47;2.40;;;;;;;10.19;59.87;102945.13;5229846;28;20018;-74
2022/03/17 10:34:33;;;;;;;;;;;;;;;10.46;61.02;102958.41;5229632;28;20674;-74
2022/03/17 10:37:11;;;;;;;12.83;2.27;;;;;;;10.26;59.64;102947.53;5230645;28;19901;-74
2022/03/17 10:39:54;;;;;;;11.37;2.23;;;;;;;10.34;58.66;102960.44;5229179;28;20075;-74
2022/03/17 10:42:27;;;;;;;10.00;2.30;;;;;;;10.08;59.35;102951.47;5230735;28;20036;-74
2022/03/17 10:45:05;;;;;;;14.97;2.30;;;;;;;10.27;60.12;102959.75;5229693;28;20045;-74
2022/03/17 10:47:39;;;;;;;14.60;3.80;;;;;;;10.31;60.29;102960.53;5230505;28;20083;-74
2022/03/17 10:50:15;;;;;;;13.82;3.63;;;;;;;10.17;60.41;102959.09;5228857;28;20033;-74
2022/03/17 10:52:50;;;;;;;13.30;1.73;;;;;;;10.23;59.56;102957.22;5230662;28;20033;-75
2022/03/17 10:55:29;;;;;;;6.87;1.90;;;;;;;10.29;60.15;102976.28;5229566;28;20091;-75
2022/03/17 10:58:18;;;;;;;10.70;2.60;;;;;;;10.40;60.43;102983.03;5212409;28;20030;-75
2022/03/17 11:00:52;;;;;;;13.23;2.50;;;;;;;10.37;60.07;102993.53;5229786;28;20045;-74
2022/03/17 11:03:24;;;;;;;11.90;2.47;;;;;;;10.27;60.83;103006.00;5229818;28;20120;-74
2022/03/17 11:05:56;;;;;;;9.37;2.60;;;;;;;10.16;60.65;102999.28;5230124;28;20494;-74
2022/03/17 11:08:27;;;;;;;10.60;1.83;;;;;;;10.37;60.51;103012.75;5228652;28;20041;-75
2022/03/17 11:10:59;;;;;;;10.17;2.03;;;;;;;10.31;60.60;103018.16;5230025;28;20026;-74
2022/03/17 11:13:31;;;;;;;10.07;2.47;;;;;;;10.32;58.79;103022.47;5229879;28;20017;-74
2022/03/17 11:16:08;;;;;;;4.57;1.73;;;;;;;10.22;57.48;103014.00;5228635;28;20029;-74
2022/03/17 11:18:41;;;;;;;9.67;2.17;;;;;;;10.31;57.72;103018.16;5229616;28;20031;-74
2022/03/17 11:21:25;;;;;;;7.93;1.70;;;;;;;10.53;57.93;103030.75;5229761;28;20033;-74
2022/03/17 11:24:06;;;;;;;6.50;1.42;;;;;;;10.70;56.48;103037.34;5228248;28;20041;-75
2022/03/17 11:26:39;;;;;;;6.80;1.70;;;;;;;10.78;55.05;103032.75;5228764;28;20028;-76
2022/03/17 11:29:13;;;;;;;7.57;1.93;;;;;;;10.87;55.41;103032.50;5227511;28;20017;-71
2022/03/17 11:31:51;;;;;;;8.75;2.50;;;;;;;11.07;54.84;103041.63;5229308;28;20136;-71
2022/03/17 11:35:04;;;;;;;10.13;1.50;;;;;;;11.22;55.89;103044.75;5226982;28;20379;-71
2022/03/17 11:37:35;;;;;;;9.00;1.30;;;;;;;11.03;54.10;103044.38;5221948;28;20220;-71
2022/03/17 11:40:13;;;;;;;8.30;2.60;;;;;;;11.08;55.48;103050.34;5228078;28;20017;-70
2022/03/17 11:42:52;;;;;;;11.80;2.10;;;;;;;11.30;54.30;103050.63;5227767;28;20022;-71
2022/03/17 11:45:23;;;;;;;11.03;3.03;;;;;;;11.28;54.12;103052.44;5212144;28;20025;-71
2022/03/17 11:47:56;;;;;;;11.57;2.30;;;;;;;11.23;54.17;103056.94;5228963;28;20032;-73
2022/03/17 11:50:33;;;;;;;8.10;1.57;;;;;;;11.33;54.33;103057.53;5228131;28;20025;-74
2022/03/17 11:53:37;;;;;;;9.63;2.33;;;;;;;11.31;53.44;103064.63;5228822;28;20117;-71
2022/03/17 11:56:09;;;;;;;6.63;2.40;;;;;;;11.15;54.26;103067.66;5228990;28;20025;-72
2022/03/17 11:58:43;;;;;;;11.30;2.50;;;;;;;11.38;54.29;103074.03;5229170;28;20032;-74